createdAt,value
2023-02-23T00:00:49.865Z,21.03
2023-02-23T00:03:16.692Z,20.57
2023-02-23T00:05:44.867Z,19.83
2023-02-23T00:08:11.621Z,21.23
2023-02-23T00:10:38.508Z,19.97
2023-02-23T00:13:05.347Z,19.97
2023-02-23T00:15:32.171Z,22.43
2023-02-23T00:17:59.135Z,21.63
2023-02-23T00:20:27.836Z,22.10
2023-02-23T00:22:57.314Z,21.10
2023-02-23T00:25:25.508Z,20.33
2023-02-23T00:27:52.708Z,20.60
2023-02-23T00:30:20.478Z,21.20
2023-02-23T00:32:47.835Z,21.27
2023-02-23T00:35:17.454Z,22.33
2023-02-23T00:37:45.494Z,21.93
2023-02-23T00:40:16.567Z,22.50
2023-02-23T00:42:45.089Z,21.30
2023-02-23T00:45:12.922Z,22.73
2023-02-23T00:47:42.306Z,22.67
2023-02-23T00:50:12.829Z,22.43
2023-02-23T00:52:40.518Z,22.07
2023-02-23T00:55:09.055Z,21.63
2023-02-23T00:57:37.557Z,21.40
2023-02-23T01:00:21.526Z,20.93
2023-02-23T01:02:48.620Z,21.90
2023-02-23T01:05:16.722Z,22.17
2023-02-23T01:07:46.734Z,19.73
2023-02-23T01:10:19.693Z,22.03
2023-02-23T01:12:49.960Z,21.87
2023-02-23T01:15:18.031Z,20.83
2023-02-23T01:17:46.004Z,22.53
2023-02-23T01:20:18.951Z,21.93
2023-02-23T01:22:47.126Z,22.73
2023-02-23T01:25:14.496Z,22.57
2023-02-23T01:27:42.056Z,23.27
2023-02-23T01:30:12.973Z,21.70
2023-02-23T01:32:39.856Z,22.27
2023-02-23T01:35:09.502Z,21.87
2023-02-23T01:37:40.440Z,21.77
2023-02-23T01:40:14.757Z,22.67
2023-02-23T01:42:43.914Z,21.17
2023-02-23T01:45:30.880Z,21.30
2023-02-23T01:48:03.074Z,21.27
2023-02-23T01:50:37.210Z,21.73
2023-02-23T01:53:04.555Z,22.40
2023-02-23T01:55:31.568Z,23.03
2023-02-23T01:58:04.239Z,23.00
2023-02-23T02:00:36.497Z,22.17
2023-02-23T02:03:09.397Z,23.50
2023-02-23T02:05:38.812Z,24.50
2023-02-23T02:08:08.012Z,22.40
2023-02-23T02:10:40.542Z,22.77
2023-02-23T02:13:09.204Z,22.80
2023-02-23T02:15:45.356Z,23.97
2023-02-23T02:18:23.330Z,23.90
2023-02-23T02:21:06.194Z,24.07
2023-02-23T02:24:04.282Z,26.13
2023-02-23T02:26:41.224Z,25.63
2023-02-23T02:29:53.139Z,25.73
2023-02-23T02:32:44.399Z,24.93
2023-02-23T02:35:39.922Z,25.03
2023-02-23T02:38:23.147Z,26.70
2023-02-23T02:40:55.342Z,25.93
2023-02-23T02:43:29.080Z,26.10
2023-02-23T02:46:02.547Z,26.57
2023-02-23T02:48:37.346Z,25.63
2023-02-23T02:51:09.959Z,26.00
2023-02-23T02:53:45.474Z,26.47
2023-02-23T02:56:15.015Z,27.33
2023-02-23T02:58:43.604Z,26.63
2023-02-23T03:01:33.372Z,26.60
2023-02-23T03:04:21.818Z,26.97
2023-02-23T03:07:12.484Z,26.63
2023-02-23T03:10:08.935Z,26.47
2023-02-23T03:13:02.972Z,26.27
2023-02-23T03:15:56.599Z,27.53
2023-02-23T03:18:56.703Z,26.53
2023-02-23T03:21:47.084Z,26.80
2023-02-23T03:24:41.257Z,26.60
2023-02-23T03:27:41.720Z,26.77
2023-02-23T03:30:37.323Z,25.97
2023-02-23T03:33:30.130Z,25.93
2023-02-23T03:36:21.831Z,26.57
2023-02-23T03:39:15.386Z,25.27
2023-02-23T03:42:02.914Z,25.83
2023-02-23T03:44:53.204Z,26.57
2023-02-23T03:47:43.634Z,25.03
2023-02-23T03:50:36.229Z,25.13
2023-02-23T03:53:23.205Z,25.30
2023-02-23T03:56:14.402Z,26.53
2023-02-23T03:59:06.488Z,26.77
2023-02-23T04:01:55.396Z,25.83
2023-02-23T04:04:42.295Z,26.70
2023-02-23T04:07:30.083Z,26.00
2023-02-23T04:10:15.344Z,25.90
2023-02-23T04:13:10.548Z,26.60
2023-02-23T04:15:41.265Z,26.47
2023-02-23T04:18:14.360Z,26.97
2023-02-23T04:20:41.248Z,26.40
2023-02-23T04:23:08.212Z,27.00
2023-02-23T04:25:35.499Z,27.30
2023-02-23T04:28:03.444Z,26.00
2023-02-23T04:30:30.478Z,26.37
2023-02-23T04:32:59.077Z,25.93
2023-02-23T04:35:29.963Z,27.40
2023-02-23T04:37:56.985Z,26.37
2023-02-23T04:40:24.410Z,26.47
2023-02-23T04:42:51.527Z,25.77
2023-02-23T04:45:18.383Z,27.27
2023-02-23T04:47:45.450Z,27.90
2023-02-23T04:50:12.785Z,25.43
2023-02-23T04:52:41.604Z,27.93
2023-02-23T04:55:14.089Z,26.23
2023-02-23T04:57:40.976Z,27.90
2023-02-23T05:00:09.295Z,26.07
2023-02-23T05:02:36.147Z,26.67
2023-02-23T05:05:03.240Z,25.60
2023-02-23T05:07:30.044Z,25.13
2023-02-23T05:09:58.240Z,26.00
2023-02-23T05:12:25.148Z,28.17
2023-02-23T05:14:52.278Z,28.90
2023-02-23T05:17:19.452Z,27.33
2023-02-23T05:19:46.380Z,28.30
2023-02-23T05:22:13.259Z,27.80
2023-02-23T05:24:40.537Z,27.33
2023-02-23T05:27:09.802Z,27.00
2023-02-23T05:29:36.798Z,27.27
2023-02-23T05:32:03.893Z,27.80
2023-02-23T05:34:30.782Z,26.47
2023-02-23T05:36:57.603Z,25.37
2023-02-23T05:39:24.502Z,26.90
2023-02-23T05:41:52.427Z,25.37
2023-02-23T05:44:20.732Z,25.73
2023-02-23T05:46:47.645Z,26.63
2023-02-23T05:49:14.502Z,27.20
2023-02-23T05:51:41.488Z,26.97
2023-02-23T05:54:08.752Z,29.23
2023-02-23T05:56:35.571Z,25.50
2023-02-23T05:59:04.760Z,25.33
2023-02-23T06:01:33.489Z,28.93
2023-02-23T06:04:00.584Z,26.20
2023-02-23T06:06:28.398Z,27.13
2023-02-23T06:08:55.469Z,26.77
2023-02-23T06:11:22.797Z,25.50
2023-02-23T06:13:49.970Z,28.23
2023-02-23T06:16:17.106Z,28.23
2023-02-23T06:18:45.339Z,26.60
2023-02-23T06:21:12.287Z,27.03
2023-02-23T06:23:39.115Z,27.10
2023-02-23T06:26:06.064Z,27.57
2023-02-23T06:28:33.322Z,28.90
2023-02-23T06:31:00.363Z,27.70
2023-02-23T06:33:27.328Z,27.63
2023-02-23T06:35:55.727Z,27.23
2023-02-23T06:38:23.966Z,27.57
2023-02-23T06:40:50.961Z,26.87
2023-02-23T06:43:18.096Z,27.37
2023-02-23T06:45:46.545Z,28.37
2023-02-23T06:48:13.524Z,27.03
2023-02-23T06:50:40.546Z,26.47
2023-02-23T06:53:08.812Z,26.77
2023-02-23T06:55:35.800Z,26.63
2023-02-23T06:58:03.344Z,27.20
2023-02-23T07:00:30.654Z,28.23
2023-02-23T07:02:57.889Z,27.07
2023-02-23T07:05:24.822Z,27.73
2023-02-23T07:07:52.109Z,27.97
2023-02-23T07:10:20.423Z,29.33
2023-02-23T07:12:47.295Z,27.77
2023-02-23T07:15:15.944Z,26.97
2023-02-23T07:17:42.766Z,27.93
2023-02-23T07:20:11.147Z,27.87
2023-02-23T07:22:39.831Z,27.83
2023-02-23T07:25:08.621Z,25.77
2023-02-23T07:27:36.951Z,28.37
2023-02-23T07:30:04.583Z,29.33
2023-02-23T07:32:31.570Z,28.40
2023-02-23T07:34:58.495Z,28.33
2023-02-23T07:37:25.401Z,29.23
2023-02-23T07:39:52.276Z,27.80
2023-02-23T07:42:19.137Z,29.53
2023-02-23T07:44:47.423Z,30.80
2023-02-23T07:47:14.373Z,27.27
2023-02-23T07:49:41.299Z,30.40
2023-02-23T07:52:08.112Z,28.63
2023-02-23T07:54:34.968Z,28.57
2023-02-23T07:57:01.852Z,30.00
2023-02-23T07:59:28.782Z,30.57
2023-02-23T08:01:57.049Z,29.70
2023-02-23T08:04:23.913Z,29.00
2023-02-23T08:06:50.786Z,28.57
2023-02-23T08:09:17.905Z,29.00
2023-02-23T08:11:45.133Z,28.73
2023-02-23T08:14:13.084Z,29.30
2023-02-23T08:16:40.010Z,29.17
2023-02-23T08:19:09.493Z,28.33
2023-02-23T08:21:36.329Z,29.20
2023-02-23T08:24:03.342Z,27.33
2023-02-23T08:26:30.162Z,28.40
2023-02-23T08:28:57.070Z,30.00
2023-02-23T08:31:25.236Z,28.37
2023-02-23T08:33:52.510Z,27.50
2023-02-23T08:36:20.947Z,34.63
2023-02-23T08:38:48.235Z,28.47
2023-02-23T08:41:15.418Z,30.13
2023-02-23T08:43:43.883Z,26.83
2023-02-23T08:46:11.074Z,27.47
2023-02-23T08:48:40.238Z,27.23
2023-02-23T08:51:07.558Z,29.10
2023-02-23T08:53:36.454Z,27.53
2023-02-23T08:56:06.110Z,25.80
2023-02-23T08:58:34.365Z,28.20
2023-02-23T09:01:01.693Z,28.30
2023-02-23T09:03:30.672Z,28.23
2023-02-23T09:05:58.654Z,27.23
2023-02-23T09:08:25.602Z,27.43
2023-02-23T09:10:53.881Z,26.47
2023-02-23T09:13:20.783Z,27.53
2023-02-23T09:15:48.017Z,26.97
2023-02-23T09:18:15.162Z,28.00
2023-02-23T09:20:43.288Z,27.93
2023-02-23T09:23:10.434Z,26.97
2023-02-23T09:25:43.190Z,28.70
2023-02-23T09:28:13.051Z,26.27
2023-02-23T09:30:41.706Z,26.90
2023-02-23T09:33:09.089Z,25.23
2023-02-23T09:35:36.384Z,24.07
2023-02-23T09:38:05.609Z,25.97
2023-02-23T09:40:39.236Z,26.60
2023-02-23T09:43:11.866Z,26.67
2023-02-23T09:45:43.736Z,26.47
2023-02-23T09:48:16.448Z,25.73
2023-02-23T09:50:47.623Z,26.30
2023-02-23T09:53:27.526Z,27.17
2023-02-23T09:55:56.129Z,25.20
2023-02-23T09:58:25.265Z,25.77
2023-02-23T10:01:09.868Z,26.37
2023-02-23T10:03:39.905Z,27.33
2023-02-23T10:06:11.263Z,25.43
2023-02-23T10:08:48.681Z,24.60
2023-02-23T10:11:24.055Z,24.07
2023-02-23T10:14:00.497Z,26.27
2023-02-23T10:16:36.904Z,25.80
2023-02-23T10:19:13.078Z,26.10
2023-02-23T10:21:42.244Z,24.37
2023-02-23T10:24:13.433Z,25.83
2023-02-23T10:26:44.253Z,24.17
2023-02-23T10:29:22.353Z,24.53
2023-02-23T10:31:56.774Z,23.23
2023-02-23T10:34:24.698Z,23.67
2023-02-23T10:36:57.557Z,23.90
2023-02-23T10:39:24.556Z,22.40
2023-02-23T10:41:52.289Z,22.90
2023-02-23T10:44:21.639Z,22.00
2023-02-23T10:46:55.632Z,22.50
2023-02-23T10:49:30.320Z,23.00
2023-02-23T10:52:02.735Z,19.40
2023-02-23T10:54:44.785Z,17.80
2023-02-23T10:57:20.473Z,18.30
2023-02-23T11:00:07.774Z,16.80
2023-02-23T11:02:36.522Z,15.67
2023-02-23T11:05:06.376Z,15.80
2023-02-23T11:07:34.511Z,14.93
2023-02-23T11:10:26.169Z,13.90
2023-02-23T11:12:53.398Z,14.40
2023-02-23T11:15:38.960Z,13.77
2023-02-23T11:18:21.643Z,13.30
2023-02-23T11:20:49.467Z,12.37
2023-02-23T11:23:22.799Z,13.80
2023-02-23T11:25:55.424Z,12.97
2023-02-23T11:28:30.439Z,11.97
2023-02-23T11:31:01.801Z,13.40
2023-02-23T11:33:35.728Z,12.47
2023-02-23T11:36:16.588Z,12.50
2023-02-23T11:38:44.826Z,12.17
2023-02-23T11:41:23.905Z,12.50
2023-02-23T11:43:51.205Z,12.40
2023-02-23T11:46:21.838Z,13.00
2023-02-23T11:48:53.991Z,13.37
2023-02-23T11:51:30.207Z,13.30
2023-02-23T11:53:57.752Z,12.70
2023-02-23T11:56:26.060Z,13.73
2023-02-23T11:58:55.437Z,12.17
2023-02-23T12:01:34.994Z,11.80
2023-02-23T12:04:04.146Z,12.23
2023-02-23T12:06:34.823Z,11.80
2023-02-23T12:09:13.008Z,12.43
2023-02-23T12:11:47.769Z,12.23
2023-02-23T12:14:24.428Z,11.97
2023-02-23T12:16:57.073Z,12.33
2023-02-23T12:19:30.542Z,11.67
2023-02-23T12:22:03.797Z,12.33
2023-02-23T12:24:44.562Z,9.80
2023-02-23T12:27:15.504Z,8.97
2023-02-23T12:29:58.602Z,9.67
2023-02-23T12:32:29.174Z,9.87
2023-02-23T12:35:01.630Z,9.43
2023-02-23T12:37:37.434Z,8.47
2023-02-23T12:40:14.868Z,7.70
2023-02-23T12:42:49.275Z,6.47
2023-02-23T12:45:22.364Z,5.80
2023-02-23T12:47:55.227Z,5.40
2023-02-23T12:50:29.191Z,5.43
2023-02-23T12:53:01.550Z,5.77
2023-02-23T12:55:40.092Z,5.47
2023-02-23T12:58:16.946Z,6.00
2023-02-23T13:00:55.078Z,5.60
2023-02-23T13:03:46.165Z,5.13
2023-02-23T13:06:22.730Z,5.20
2023-02-23T13:09:02.477Z,5.30
2023-02-23T13:11:53.171Z,4.43
2023-02-23T13:14:27.443Z,4.50
2023-02-23T13:16:59.355Z,5.10
2023-02-23T13:19:32.506Z,4.67
2023-02-23T13:22:21.241Z,5.00
2023-02-23T13:24:49.457Z,5.20
2023-02-23T13:27:23.248Z,4.93
2023-02-23T13:29:55.256Z,5.50
2023-02-23T13:32:25.519Z,5.30
2023-02-23T13:34:56.380Z,5.47
2023-02-23T13:37:29.309Z,5.77
2023-02-23T13:40:05.042Z,5.20
2023-02-23T13:42:47.600Z,6.10
2023-02-23T13:45:28.976Z,5.27
2023-02-23T13:48:02.708Z,5.87
2023-02-23T13:50:35.955Z,5.67
2023-02-23T13:53:07.745Z,6.10
2023-02-23T13:55:49.989Z,5.63
2023-02-23T13:58:21.736Z,6.43
2023-02-23T14:01:03.060Z,6.90
2023-02-23T14:03:33.990Z,6.67
2023-02-23T14:06:01.296Z,8.10
2023-02-23T14:08:34.790Z,7.47
2023-02-23T14:11:02.405Z,8.13
2023-02-23T14:13:31.437Z,7.87
2023-02-23T14:16:18.367Z,7.07
2023-02-23T14:18:57.927Z,6.93
2023-02-23T14:21:33.320Z,7.27
2023-02-23T14:24:17.524Z,7.03
2023-02-23T14:27:07.291Z,6.67
2023-02-23T14:29:40.494Z,7.00
2023-02-23T14:32:27.725Z,8.37
2023-02-23T14:34:59.455Z,8.03
2023-02-23T14:37:32.119Z,7.63
2023-02-23T14:40:08.908Z,7.33
2023-02-23T14:42:38.786Z,6.83
2023-02-23T14:45:17.702Z,6.93
2023-02-23T14:47:48.479Z,6.60
2023-02-23T14:50:24.370Z,6.37
2023-02-23T14:52:52.915Z,6.50
2023-02-23T14:55:27.335Z,6.77
2023-02-23T14:57:55.372Z,7.37
2023-02-23T15:00:25.998Z,7.77
2023-02-23T15:02:56.704Z,8.40
2023-02-23T15:05:27.904Z,7.60
2023-02-23T15:07:59.137Z,7.83
2023-02-23T15:10:31.164Z,7.63
2023-02-23T15:12:59.182Z,6.97
2023-02-23T15:15:27.179Z,7.43
2023-02-23T15:17:57.982Z,7.37
2023-02-23T15:20:32.647Z,7.40
2023-02-23T15:23:02.335Z,6.60
2023-02-23T15:25:37.709Z,6.27
2023-02-23T15:28:18.816Z,6.20
2023-02-23T15:30:48.839Z,5.00
2023-02-23T15:33:23.504Z,5.60
2023-02-23T15:35:55.126Z,5.27
2023-02-23T15:38:42.495Z,6.67
2023-02-23T15:41:17.888Z,5.50
2023-02-23T15:43:45.000Z,5.77
2023-02-23T15:46:24.063Z,6.20
2023-02-23T15:48:54.067Z,6.03
2023-02-23T15:51:28.931Z,6.57
2023-02-23T15:53:56.034Z,5.60
2023-02-23T15:56:27.312Z,6.20
2023-02-23T15:58:57.509Z,6.17
2023-02-23T16:01:26.790Z,5.47
2023-02-23T16:04:02.202Z,5.87
2023-02-23T16:06:34.608Z,5.50
2023-02-23T16:09:19.832Z,5.80
2023-02-23T16:11:51.779Z,6.00
2023-02-23T16:14:20.956Z,6.33
2023-02-23T16:17:08.370Z,5.63
2023-02-23T16:19:41.043Z,5.90
2023-02-23T16:22:19.134Z,6.07
2023-02-23T16:24:53.709Z,6.67
2023-02-23T16:27:23.590Z,7.37
2023-02-23T16:29:57.515Z,7.40
2023-02-23T16:32:25.261Z,6.60
2023-02-23T16:34:57.819Z,6.93
2023-02-23T16:37:27.949Z,7.27
2023-02-23T16:39:58.105Z,7.93
2023-02-23T16:42:28.998Z,7.40
2023-02-23T16:44:57.500Z,6.83
2023-02-23T16:47:43.715Z,7.90
2023-02-23T16:50:20.738Z,8.33
2023-02-23T16:52:52.043Z,8.83
2023-02-23T16:55:19.640Z,8.00
2023-02-23T16:57:52.399Z,7.60
2023-02-23T17:00:23.205Z,8.87
2023-02-23T17:02:50.841Z,7.57
2023-02-23T17:05:21.442Z,6.87
2023-02-23T17:07:48.608Z,8.10
2023-02-23T17:10:25.012Z,6.83
2023-02-23T17:12:55.459Z,8.17
2023-02-23T17:15:23.935Z,8.10
2023-02-23T17:17:53.206Z,7.80
2023-02-23T17:20:21.375Z,9.10
2023-02-23T17:22:51.917Z,7.83
2023-02-23T17:25:19.380Z,8.17
2023-02-23T17:27:46.373Z,8.33
2023-02-23T17:30:15.317Z,8.47
2023-02-23T17:32:42.344Z,8.13
2023-02-23T17:35:09.992Z,7.93
2023-02-23T17:37:39.864Z,8.83
2023-02-23T17:40:08.695Z,7.63
2023-02-23T17:42:35.757Z,8.33
2023-02-23T17:45:03.752Z,8.53
2023-02-23T17:47:33.278Z,9.03
2023-02-23T17:50:00.860Z,9.47
2023-02-23T17:52:28.837Z,8.33
2023-02-23T17:54:55.806Z,8.67
2023-02-23T17:57:23.592Z,9.23
2023-02-23T17:59:51.395Z,8.70
2023-02-23T18:02:20.769Z,9.70
2023-02-23T18:04:50.384Z,9.87
2023-02-23T18:07:17.714Z,11.63
2023-02-23T18:09:45.260Z,11.37
2023-02-23T18:12:12.190Z,10.27
2023-02-23T18:14:39.041Z,9.90
2023-02-23T18:17:05.945Z,9.53
2023-02-23T18:19:32.832Z,10.07
2023-02-23T18:22:01.088Z,10.23
2023-02-23T18:24:28.418Z,9.87
2023-02-23T18:27:00.484Z,11.37
2023-02-23T18:29:28.736Z,11.73
2023-02-23T18:31:56.005Z,10.77
2023-02-23T18:34:23.159Z,11.40
2023-02-23T18:36:50.096Z,11.20
2023-02-23T18:39:18.393Z,15.77
2023-02-23T18:41:45.291Z,13.00
2023-02-23T18:44:16.865Z,12.27
2023-02-23T18:46:45.333Z,12.03
2023-02-23T18:49:14.488Z,13.03
2023-02-23T18:51:42.520Z,11.30
2023-02-23T18:54:11.802Z,12.70
2023-02-23T18:56:40.228Z,12.17
2023-02-23T18:59:07.154Z,12.67
2023-02-23T19:01:34.855Z,12.20
2023-02-23T19:04:02.743Z,12.50
2023-02-23T19:06:31.695Z,13.23
2023-02-23T19:08:59.916Z,13.30
2023-02-23T19:11:28.982Z,13.00
2023-02-23T19:13:59.954Z,12.70
2023-02-23T19:16:31.067Z,12.87
2023-02-23T19:18:58.482Z,12.27
2023-02-23T19:21:26.066Z,13.33
2023-02-23T19:23:56.298Z,13.73
2023-02-23T19:26:23.515Z,12.53
2023-02-23T19:28:50.404Z,12.30
2023-02-23T19:31:21.015Z,11.80
2023-02-23T19:33:49.640Z,13.40
2023-02-23T19:36:19.795Z,12.07
2023-02-23T19:38:47.271Z,12.57
2023-02-23T19:41:16.945Z,12.20
2023-02-23T19:43:44.458Z,13.13
2023-02-23T19:46:13.689Z,13.30
2023-02-23T19:48:42.480Z,12.93
2023-02-23T19:51:11.751Z,12.07
2023-02-23T19:53:38.771Z,12.63
2023-02-23T19:56:08.342Z,11.60
2023-02-23T19:58:35.718Z,13.17
2023-02-23T20:01:06.366Z,12.00
2023-02-23T20:03:33.642Z,10.90
2023-02-23T20:06:05.677Z,12.27
2023-02-23T20:08:33.016Z,12.57
2023-02-23T20:11:00.437Z,11.83
2023-02-23T20:13:27.339Z,11.07
2023-02-23T20:16:01.011Z,11.97
2023-02-23T20:18:28.656Z,10.67
2023-02-23T20:20:55.616Z,11.57
2023-02-23T20:23:23.865Z,11.63
2023-02-23T20:25:50.761Z,11.83
2023-02-23T20:28:17.692Z,11.80
2023-02-23T20:30:46.852Z,11.47
2023-02-23T20:33:15.226Z,21.00
2023-02-23T20:35:42.693Z,20.13
2023-02-23T20:38:09.916Z,16.07
2023-02-23T20:40:38.172Z,11.33
2023-02-23T20:43:05.042Z,10.30
2023-02-23T20:45:31.934Z,11.07
2023-02-23T20:47:58.958Z,11.33
2023-02-23T20:50:33.162Z,11.77
2023-02-23T20:53:03.443Z,11.87
2023-02-23T20:55:30.905Z,11.50
2023-02-23T20:57:59.105Z,11.43
2023-02-23T21:00:32.036Z,11.73
2023-02-23T21:02:59.821Z,12.10
2023-02-23T21:05:29.004Z,11.53
2023-02-23T21:07:58.827Z,11.50
2023-02-23T21:10:28.438Z,11.90
2023-02-23T21:12:55.905Z,12.10
2023-02-23T21:15:25.626Z,12.20
2023-02-23T21:17:53.491Z,12.93
2023-02-23T21:20:21.414Z,13.13
2023-02-23T21:22:51.641Z,11.47
2023-02-23T21:25:20.704Z,11.67
2023-02-23T21:27:47.615Z,12.63
2023-02-23T21:30:24.794Z,10.90
2023-02-23T21:32:53.612Z,12.47
2023-02-23T21:35:21.250Z,12.03
2023-02-23T21:37:52.213Z,13.40
2023-02-23T21:40:23.433Z,11.43
2023-02-23T21:42:51.271Z,10.90
2023-02-23T21:45:19.416Z,10.87
2023-02-23T21:47:47.436Z,12.53
2023-02-23T21:50:17.300Z,12.00
2023-02-23T21:52:48.476Z,12.00
2023-02-23T21:55:21.493Z,13.93
2023-02-23T21:57:49.183Z,14.27
2023-02-23T22:00:16.882Z,15.30
2023-02-23T22:02:46.297Z,15.10
2023-02-23T22:05:15.914Z,15.33
2023-02-23T22:07:48.399Z,15.17
2023-02-23T22:10:15.921Z,15.17
2023-02-23T22:12:42.741Z,15.30
2023-02-23T22:15:10.450Z,14.50
2023-02-23T22:17:38.620Z,15.20
2023-02-23T22:20:09.958Z,15.63
2023-02-23T22:22:38.212Z,15.73
2023-02-23T22:25:07.312Z,16.17
2023-02-23T22:27:34.185Z,16.07
2023-02-23T22:30:01.467Z,15.03
2023-02-23T22:32:32.700Z,16.10
2023-02-23T22:35:00.227Z,15.73
2023-02-23T22:37:31.491Z,15.30
2023-02-23T22:40:16.420Z,15.10
2023-02-23T22:42:47.956Z,14.80
2023-02-23T22:45:16.016Z,15.53
2023-02-23T22:47:43.114Z,15.23
2023-02-23T22:50:12.199Z,15.27
2023-02-23T22:52:39.169Z,15.63
2023-02-23T22:55:08.299Z,14.57
2023-02-23T22:57:35.202Z,10.83
2023-02-23T23:00:11.301Z,10.97
2023-02-23T23:02:38.334Z,9.97
2023-02-23T23:05:06.111Z,9.83
2023-02-23T23:07:33.007Z,9.93
2023-02-23T23:10:03.943Z,9.47
2023-02-23T23:12:34.254Z,8.67
2023-02-23T23:15:01.324Z,8.67
2023-02-23T23:17:28.878Z,8.40
2023-02-23T23:19:55.914Z,8.13
2023-02-23T23:22:24.988Z,8.33
2023-02-23T23:24:52.212Z,9.90
2023-02-23T23:27:19.974Z,10.53
2023-02-23T23:29:48.912Z,11.53
2023-02-23T23:32:18.531Z,12.70
2023-02-23T23:34:47.975Z,11.03
2023-02-23T23:37:16.493Z,11.00
2023-02-23T23:39:44.013Z,10.43
2023-02-23T23:42:11.229Z,10.47
2023-02-23T23:44:38.026Z,10.00
2023-02-23T23:47:06.344Z,8.77
2023-02-23T23:49:38.526Z,9.43
2023-02-23T23:52:06.445Z,10.57
2023-02-23T23:54:39.481Z,10.07
2023-02-23T23:57:06.781Z,9.43
2023-02-23T23:59:35.486Z,9.70
